Time;durP1;ratioP1;P1;durP2;ratioP2;P2;SDS_P1;SDS_P2;PMS_P1;PMS_P2;Temp;Humidity;BMP_temperature;BMP_pressure;BME280_temperature;BME280_humidity;BME280_pressure;Samples;Min_cycle;Max_cycle;Signal;HPM_P1;HPM_P2
2021/04/28 00:01:04;;;;;;;0.90;0.90;;;12.60;99.90;;;;;;5008815;28;20034;-74
2021/04/28 00:03:30;;;;;;;1.17;1.15;;;12.60;99.90;;;;;;5012090;28;20046;-74
2021/04/28 00:05:56;;;;;;;1.40;1.08;;;12.50;99.90;;;;;;5011861;28;20103;-74
2021/04/28 00:08:22;;;;;;;1.40;1.30;;;12.60;99.90;;;;;;5009651;28;20025;-76
2021/04/28 00:10:47;;;;;;;3.17;1.17;;;12.60;99.90;;;;;;5006094;28;20552;-76
2021/04/28 00:13:16;;;;;;;1.35;1.00;;;12.60;99.90;;;;;;4991582;28;20030;-75
2021/04/28 00:15:45;;;;;;;1.90;1.23;;;12.50;99.90;;;;;;5010681;28;20038;-75
2021/04/28 00:18:12;;;;;;;1.02;1.00;;;12.40;99.90;;;;;;5002443;28;20084;-75
2021/04/28 00:20:39;;;;;;;2.05;1.30;;;12.50;99.90;;;;;;5011906;28;20033;-75
2021/04/28 00:23:07;;;;;;;1.23;1.13;;;12.60;99.90;;;;;;5014807;28;20029;-76
2021/04/28 00:25:33;;;;;;;1.15;1.05;;;12.60;99.90;;;;;;5010682;28;20026;-75
2021/04/28 00:28:00;;;;;;;1.08;0.98;;;12.60;99.90;;;;;;5009970;28;20022;-75
2021/04/28 00:30:25;;;;;;;2.38;1.05;;;12.60;99.90;;;;;;5008262;28;20108;-75
2021/04/28 00:32:52;;;;;;;1.23;1.13;;;12.60;99.90;;;;;;5012431;28;20113;-75
2021/04/28 00:35:20;;;;;;;1.25;1.08;;;12.60;99.90;;;;;;5011947;28;20030;-75
2021/04/28 00:37:46;;;;;;;1.55;1.45;;;12.50;99.90;;;;;;5014871;28;20025;-75
2021/04/28 00:40:15;;;;;;;1.48;1.38;;;12.50;99.90;;;;;;5001707;28;20055;-75
2021/04/28 00:42:43;;;;;;;1.38;1.27;;;12.40;99.90;;;;;;5010961;28;20018;-75
2021/04/28 00:45:09;;;;;;;1.30;1.20;;;12.50;99.90;;;;;;5014991;28;20093;-76
2021/04/28 00:47:35;;;;;;;1.33;1.17;;;12.50;99.90;;;;;;4990376;28;20062;-76
2021/04/28 00:50:02;;;;;;;1.42;1.33;;;12.50;99.90;;;;;;5008328;28;20042;-76
2021/04/28 00:52:28;;;;;;;6.15;1.40;;;12.50;99.90;;;;;;4995973;28;20026;-76
2021/04/28 00:54:54;;;;;;;3.00;1.33;;;12.60;99.90;;;;;;5011093;28;20025;-76
2021/04/28 00:57:20;;;;;;;1.50;1.40;;;12.60;99.90;;;;;;4986554;28;20060;-76
2021/04/28 00:59:46;;;;;;;4.05;1.10;;;12.60;99.90;;;;;;5011198;28;20029;-77
2021/04/28 01:02:12;;;;;;;2.00;1.65;;;12.40;99.90;;;;;;5003826;28;20079;-76
2021/04/28 01:04:38;;;;;;;2.05;1.55;;;12.40;99.90;;;;;;4995785;28;20492;-76
2021/04/28 01:07:08;;;;;;;1.52;1.42;;;12.50;99.90;;;;;;4991693;28;20392;-76
2021/04/28 01:09:34;;;;;;;1.52;1.40;;;12.50;99.90;;;;;;5005017;28;20032;-77
2021/04/28 01:12:03;;;;;;;3.35;1.88;;;12.40;99.90;;;;;;5007891;28;20033;-75
2021/04/28 01:14:30;;;;;;;1.48;1.33;;;12.40;99.90;;;;;;4994906;28;20397;-76
2021/04/28 01:16:56;;;;;;;2.05;1.35;;;12.40;99.90;;;;;;5010271;28;20046;-76
2021/04/28 01:19:23;;;;;;;3.53;1.85;;;12.40;99.90;;;;;;5012183;28;20053;-76
2021/04/28 01:21:50;;;;;;;1.45;1.35;;;12.40;99.90;;;;;;5010164;28;20025;-76
2021/04/28 01:24:16;;;;;;;1.40;1.30;;;12.30;99.90;;;;;;5010628;28;20084;-76
2021/04/28 01:26:45;;;;;;;1.77;1.67;;;12.30;99.90;;;;;;5007752;28;20034;-77
2021/04/28 01:29:12;;;;;;;1.55;1.45;;;12.40;99.90;;;;;;5010603;28;20025;-75
2021/04/28 01:31:38;;;;;;;2.05;1.35;;;12.40;99.90;;;;;;5010147;28;20018;-75
2021/04/28 01:34:06;;;;;;;1.40;1.30;;;12.40;99.90;;;;;;5005366;28;20398;-75
2021/04/28 01:36:38;;;;;;;1.85;1.75;;;12.40;99.90;;;;;;5006586;28;20084;-76
2021/04/28 01:39:11;;;;;;;;;;;12.40;99.90;;;;;;5012724;28;20021;-76
2021/04/28 01:41:42;;;;;;;1.88;1.73;;;12.40;99.90;;;;;;4989656;28;20359;-76
2021/04/28 01:44:12;;;;;;;2.10;1.90;;;12.40;99.90;;;;;;5011462;28;20392;-75
2021/04/28 01:46:39;;;;;;;1.60;1.50;;;12.40;99.90;;;;;;5011598;28;20022;-75
2021/04/28 01:49:05;;;;;;;1.30;1.23;;;12.40;99.90;;;;;;5009194;28;20045;-76
2021/04/28 01:51:34;;;;;;;3.63;1.70;;;12.30;99.90;;;;;;5010551;28;20061;-74
2021/04/28 01:54:04;;;;;;;1.48;1.38;;;12.30;99.90;;;;;;5012044;28;20026;-75
2021/04/28 01:56:31;;;;;;;1.48;1.38;;;12.30;99.90;;;;;;4987615;28;20037;-75
2021/04/28 01:58:57;;;;;;;1.52;1.42;;;12.30;99.90;;;;;;4996281;28;20026;-75
2021/04/28 02:01:24;;;;;;;1.52;1.42;;;12.30;99.90;;;;;;4980896;28;20026;-75
2021/04/28 02:03:52;;;;;;;1.67;1.58;;;12.20;99.90;;;;;;5007961;28;20049;-75
2021/04/28 02:06:18;;;;;;;1.60;1.50;;;12.30;99.90;;;;;;4980345;28;20053;-76
2021/04/28 02:08:45;;;;;;;1.35;1.25;;;12.30;99.90;;;;;;5009305;28;20026;-76
2021/04/28 02:11:11;;;;;;;1.35;1.10;;;12.30;99.90;;;;;;5006063;28;20044;-76
2021/04/28 02:13:39;;;;;;;1.40;1.30;;;12.30;99.90;;;;;;5003658;28;20093;-75
2021/04/28 02:16:06;;;;;;;1.60;1.50;;;12.30;99.90;;;;;;4988991;28;20517;-77
2021/04/28 02:18:32;;;;;;;1.48;1.42;;;12.20;99.90;;;;;;5011819;28;20472;-76
2021/04/28 02:21:03;;;;;;;1.38;1.27;;;12.20;99.90;;;;;;5010140;28;20057;-75
2021/04/28 02:23:31;;;;;;;1.33;1.23;;;12.20;99.90;;;;;;4993617;28;20496;-76
2021/04/28 02:25:58;;;;;;;1.30;1.20;;;12.20;99.90;;;;;;5008863;28;20033;-76
2021/04/28 02:28:24;;;;;;;1.50;1.40;;;12.20;99.90;;;;;;5010153;28;20052;-76
2021/04/28 02:30:50;;;;;;;1.38;1.27;;;12.20;99.90;;;;;;5007863;28;20026;-76
2021/04/28 02:33:16;;;;;;;1.63;1.52;;;12.20;99.90;;;;;;5011135;28;20030;-76
2021/04/28 02:35:42;;;;;;;1.98;1.42;;;12.20;99.90;;;;;;5010213;28;20057;-76
2021/04/28 02:38:11;;;;;;;1.70;1.60;;;12.20;99.90;;;;;;5007145;28;20014;-76
2021/04/28 02:40:37;;;;;;;1.92;1.48;;;12.20;99.90;;;;;;5007065;28;20052;-76
2021/04/28 02:43:04;;;;;;;2.20;1.50;;;12.10;99.90;;;;;;4993081;28;20029;-76
2021/04/28 02:45:31;;;;;;;1.45;1.35;;;12.10;99.90;;;;;;5006997;28;20049;-76
2021/04/28 02:48:00;;;;;;;1.70;1.60;;;12.00;99.90;;;;;;5011000;28;20036;-76
2021/04/28 02:50:27;;;;;;;1.27;1.17;;;12.00;99.90;;;;;;5001296;28;20025;-75
2021/04/28 02:52:54;;;;;;;1.73;1.63;;;12.00;99.90;;;;;;5007362;28;20030;-75
2021/04/28 02:55:20;;;;;;;2.08;1.90;;;12.00;99.90;;;;;;5005090;28;20029;-75
2021/04/28 02:57:47;;;;;;;5.85;2.20;;;11.90;99.90;;;;;;5019739;28;20025;-75
2021/04/28 03:00:17;;;;;;;1.50;1.40;;;11.90;99.90;;;;;;5021728;28;20022;-75
2021/04/28 03:02:43;;;;;;;1.38;1.33;;;11.90;99.90;;;;;;5003515;28;20496;-75
2021/04/28 03:05:12;;;;;;;2.58;2.00;;;11.90;99.90;;;;;;5009239;28;20038;-75
2021/04/28 03:07:38;;;;;;;1.35;1.25;;;11.90;99.90;;;;;;5004323;28;20053;-75
2021/04/28 03:10:05;;;;;;;4.95;2.20;;;12.00;99.90;;;;;;4991138;28;20072;-75
2021/04/28 03:12:32;;;;;;;1.80;1.20;;;12.00;99.90;;;;;;5000620;28;20092;-75
2021/04/28 03:14:57;;;;;;;1.88;1.77;;;12.10;99.90;;;;;;5009007;28;20536;-77
2021/04/28 03:17:24;;;;;;;1.58;1.48;;;12.10;99.90;;;;;;5006200;28;20053;-77
2021/04/28 03:19:51;;;;;;;1.55;1.45;;;12.00;99.90;;;;;;5015928;28;20022;-78
2021/04/28 03:22:18;;;;;;;1.42;1.33;;;12.00;99.90;;;;;;5011550;28;20076;-76
2021/04/28 03:24:46;;;;;;;1.73;1.63;;;12.00;99.90;;;;;;5010709;28;20053;-77
2021/04/28 03:27:14;;;;;;;2.20;1.65;;;12.00;99.90;;;;;;5006199;28;20062;-77
2021/04/28 03:29:40;;;;;;;2.45;1.70;;;12.00;99.90;;;;;;5011085;28;20101;-76
2021/04/28 03:32:07;;;;;;;3.80;1.33;;;12.00;99.90;;;;;;5009702;28;20045;-77
2021/04/28 03:34:34;;;;;;;1.50;1.40;;;12.00;99.90;;;;;;4985817;28;20030;-77
2021/04/28 03:37:01;;;;;;;1.42;1.33;;;12.00;99.90;;;;;;4988620;28;20531;-76
2021/04/28 03:39:28;;;;;;;1.95;1.75;;;12.00;99.90;;;;;;5010715;28;20050;-76
2021/04/28 03:41:54;;;;;;;2.67;2.47;;;12.10;99.90;;;;;;5008457;28;20112;-76
2021/04/28 03:44:20;;;;;;;1.73;1.63;;;12.10;99.90;;;;;;5002484;28;20105;-77
2021/04/28 03:46:45;;;;;;;1.63;1.50;;;12.00;99.90;;;;;;5003560;28;20448;-76
2021/04/28 03:49:11;;;;;;;4.90;2.03;;;12.00;99.90;;;;;;5005223;28;20034;-76
2021/04/28 03:51:37;;;;;;;1.85;1.75;;;12.00;99.90;;;;;;5010112;28;20384;-76
2021/04/28 03:54:03;;;;;;;2.60;1.75;;;12.00;99.90;;;;;;5010158;28;20030;-76
2021/04/28 03:56:29;;;;;;;1.63;1.52;;;12.00;99.90;;;;;;5009597;28;20032;-77
2021/04/28 03:58:55;;;;;;;1.90;1.70;;;12.00;99.90;;;;;;5007327;28;20030;-75
2021/04/28 04:01:20;;;;;;;2.22;2.03;;;11.90;99.90;;;;;;4997644;28;20026;-76
2021/04/28 04:03:47;;;;;;;1.75;1.50;;;11.90;99.90;;;;;;5004100;28;20734;-77
2021/04/28 04:06:12;;;;;;;1.77;1.60;;;12.00;99.90;;;;;;5010533;28;20041;-77
2021/04/28 04:08:38;;;;;;;2.63;1.83;;;11.90;99.90;;;;;;5004566;28;20019;-76
2021/04/28 04:11:04;;;;;;;1.92;1.73;;;11.80;99.90;;;;;;5001150;28;20112;-75
2021/04/28 04:13:30;;;;;;;4.50;2.22;;;11.80;99.90;;;;;;5001418;28;20034;-75
2021/04/28 04:15:55;;;;;;;1.73;1.63;;;11.90;99.90;;;;;;4989841;28;20048;-76
2021/04/28 04:18:21;;;;;;;3.10;1.40;;;11.90;99.90;;;;;;5006248;28;20053;-77
2021/04/28 04:20:47;;;;;;;1.83;1.73;;;11.90;99.90;;;;;;5011480;28;20014;-78
2021/04/28 04:23:13;;;;;;;6.07;1.75;;;11.90;99.90;;;;;;5006504;28;20026;-76
2021/04/28 04:25:39;;;;;;;1.58;1.48;;;11.90;99.90;;;;;;4989080;28;20034;-76
2021/04/28 04:28:05;;;;;;;1.55;1.45;;;12.00;99.90;;;;;;5011349;28;20033;-76
2021/04/28 04:30:30;;;;;;;2.15;1.90;;;12.00;99.90;;;;;;4996912;28;20381;-75
2021/04/28 04:32:56;;;;;;;2.05;1.85;;;12.00;99.90;;;;;;5012608;28;20498;-75
2021/04/28 04:35:22;;;;;;;2.63;2.00;;;12.00;99.90;;;;;;4990642;28;20030;-74
2021/04/28 04:37:48;;;;;;;3.90;1.63;;;11.90;99.90;;;;;;5008800;28;20045;-75
2021/04/28 04:40:15;;;;;;;5.85;2.35;;;11.90;99.90;;;;;;5030587;28;20030;-76
2021/04/28 04:42:41;;;;;;;2.70;2.50;;;11.90;99.90;;;;;;5029227;28;20170;-76
2021/04/28 04:45:07;;;;;;;2.20;2.00;;;12.00;99.90;;;;;;5011990;28;20033;-75
2021/04/28 04:47:33;;;;;;;2.75;1.95;;;11.90;99.90;;;;;;5005338;28;20038;-77
2021/04/28 04:49:58;;;;;;;2.78;2.53;;;12.00;99.90;;;;;;5008997;28;20392;-76
2021/04/28 04:52:24;;;;;;;2.80;2.05;;;12.00;99.90;;;;;;5006435;28;20213;-76
2021/04/28 04:54:50;;;;;;;2.05;1.92;;;12.00;99.90;;;;;;5009159;28;20029;-76
2021/04/28 04:57:16;;;;;;;3.15;2.50;;;12.00;99.90;;;;;;4997387;28;20026;-76
2021/04/28 04:59:42;;;;;;;2.67;2.30;;;12.00;99.90;;;;;;5009257;28;20358;-76
2021/04/28 05:02:08;;;;;;;2.30;1.88;;;12.10;99.90;;;;;;5011179;28;20472;-76
2021/04/28 05:04:34;;;;;;;1.98;1.80;;;12.20;99.90;;;;;;5007760;28;20037;-76
2021/04/28 05:07:00;;;;;;;2.50;2.30;;;12.10;99.90;;;;;;5010025;28;20036;-73
2021/04/28 05:09:25;;;;;;;2.38;2.17;;;12.00;99.90;;;;;;5008609;28;20090;-72
2021/04/28 05:11:51;;;;;;;2.70;2.50;;;12.00;99.90;;;;;;5006768;28;20044;-72
2021/04/28 05:14:17;;;;;;;1.92;1.83;;;12.00;99.90;;;;;;5006181;28;20041;-73
2021/04/28 05:16:43;;;;;;;4.15;2.25;;;12.10;99.90;;;;;;5006312;28;20435;-73
2021/04/28 05:19:08;;;;;;;2.28;2.03;;;12.10;99.90;;;;;;5006955;28;20021;-73
2021/04/28 05:21:34;;;;;;;5.53;2.22;;;12.10;99.90;;;;;;5011586;28;20472;-73
2021/04/28 05:24:01;;;;;;;3.05;2.75;;;12.10;99.90;;;;;;5006175;28;20026;-72
2021/04/28 05:26:27;;;;;;;3.95;2.33;;;12.10;99.90;;;;;;5002523;28;20053;-73
2021/04/28 05:28:53;;;;;;;4.07;1.85;;;12.10;99.90;;;;;;5008870;28;20028;-75
2021/04/28 05:31:19;;;;;;;3.95;2.10;;;12.10;99.90;;;;;;5010931;28;20013;-71
2021/04/28 05:33:45;;;;;;;1.95;1.85;;;12.30;99.90;;;;;;4986126;28;20061;-72
2021/04/28 05:36:11;;;;;;;3.35;2.03;;;12.30;99.90;;;;;;5008359;28;20050;-72
2021/04/28 05:38:38;;;;;;;3.15;2.58;;;12.30;99.90;;;;;;4990672;28;20026;-73
2021/04/28 05:41:04;;;;;;;8.00;3.05;;;12.30;99.90;;;;;;5003997;28;20026;-73
2021/04/28 05:43:30;;;;;;;3.00;1.77;;;12.50;99.90;;;;;;5012027;28;20388;-73
2021/04/28 05:45:56;;;;;;;1.75;1.65;;;12.40;99.90;;;;;;5008704;28;20034;-73
2021/04/28 05:48:22;;;;;;;2.50;2.30;;;12.40;99.90;;;;;;5009057;28;20041;-71
2021/04/28 05:50:48;;;;;;;1.98;1.75;;;12.50;99.90;;;;;;5009026;28;20507;-75
2021/04/28 05:53:14;;;;;;;1.95;1.63;;;12.60;99.90;;;;;;5011115;28;20503;-75
2021/04/28 05:55:40;;;;;;;2.67;2.35;;;12.70;99.90;;;;;;5006343;28;20030;-76
2021/04/28 05:58:06;;;;;;;6.68;2.53;;;12.80;99.90;;;;;;5002158;28;20048;-72
2021/04/28 06:00:33;;;;;;;4.15;2.42;;;12.90;99.90;;;;;;4981859;28;20028;-75
2021/04/28 06:02:59;;;;;;;2.28;2.08;;;12.90;99.90;;;;;;5005667;28;20056;-73
2021/04/28 06:05:25;;;;;;;3.33;2.08;;;12.90;99.90;;;;;;5007138;28;20030;-74
2021/04/28 06:07:51;;;;;;;4.15;2.38;;;13.00;99.90;;;;;;5000796;28;20056;-74
2021/04/28 06:10:17;;;;;;;2.47;1.98;;;13.10;99.90;;;;;;5011224;28;20049;-74
2021/04/28 06:12:44;;;;;;;2.13;2.03;;;13.20;99.90;;;;;;5009151;28;20030;-76
2021/04/28 06:15:12;;;;;;;3.13;2.60;;;13.30;99.90;;;;;;4991152;28;20033;-75
2021/04/28 06:17:41;;;;;;;2.28;1.88;;;13.40;99.90;;;;;;5011006;28;20044;-75
2021/04/28 06:20:13;;;;;;;1.77;1.67;;;13.30;99.90;;;;;;5010968;28;20026;-76
2021/04/28 06:22:39;;;;;;;4.85;2.03;;;13.40;99.90;;;;;;5010799;28;20038;-76
2021/04/28 06:25:06;;;;;;;4.55;2.35;;;13.50;99.90;;;;;;5008154;28;20034;-76
2021/04/28 06:27:32;;;;;;;4.72;2.08;;;13.50;99.90;;;;;;4999150;28;20030;-76
2021/04/28 06:29:57;;;;;;;2.30;2.10;;;13.60;99.90;;;;;;5009541;28;20029;-75
2021/04/28 06:32:23;;;;;;;2.72;1.90;;;13.60;99.90;;;;;;4993419;28;20515;-75
2021/04/28 06:34:49;;;;;;;2.80;2.55;;;13.70;99.90;;;;;;5008377;28;20224;-74
2021/04/28 06:37:14;;;;;;;1.75;1.65;;;13.90;99.90;;;;;;5011622;28;20061;-76
2021/04/28 06:39:40;;;;;;;2.80;2.33;;;14.20;99.90;;;;;;5008531;28;20025;-76
2021/04/28 06:42:07;;;;;;;3.33;2.30;;;14.40;99.90;;;;;;4993006;28;20121;-76
2021/04/28 06:44:32;;;;;;;1.95;1.80;;;14.50;99.90;;;;;;5011079;28;20030;-74
2021/04/28 06:46:58;;;;;;;7.28;2.15;;;14.70;99.90;;;;;;5009561;28;20181;-74
2021/04/28 06:49:24;;;;;;;2.20;2.00;;;14.80;99.90;;;;;;4992001;28;20540;-73
2021/04/28 06:51:50;;;;;;;3.15;2.28;;;14.80;99.90;;;;;;5004684;28;20481;-75
2021/04/28 06:54:16;;;;;;;3.63;1.88;;;14.70;99.90;;;;;;4999461;28;20480;-76
2021/04/28 06:56:43;;;;;;;10.88;2.90;;;14.60;99.90;;;;;;5010119;28;20076;-78
2021/04/28 06:59:10;;;;;;;5.43;2.25;;;14.70;99.90;;;;;;5019593;28;20144;-74
2021/04/28 07:01:35;;;;;;;7.75;3.53;;;14.70;99.90;;;;;;5011437;28;20026;-74
2021/04/28 07:04:01;;;;;;;2.80;2.60;;;14.70;99.90;;;;;;5008242;28;20061;-74
2021/04/28 07:06:27;;;;;;;2.92;2.03;;;14.80;99.90;;;;;;5005018;28;20092;-74
2021/04/28 07:08:53;;;;;;;2.17;2.05;;;15.00;99.90;;;;;;5008290;28;20029;-75
2021/04/28 07:11:18;;;;;;;4.38;2.22;;;15.20;99.90;;;;;;5004488;28;20071;-76
2021/04/28 07:13:44;;;;;;;4.97;2.47;;;15.30;99.90;;;;;;5012466;28;20384;-74
2021/04/28 07:16:10;;;;;;;2.45;2.25;;;15.30;99.90;;;;;;4985729;28;20037;-77
2021/04/28 07:18:36;;;;;;;4.78;2.58;;;15.20;99.90;;;;;;5008314;28;20033;-76
2021/04/28 07:21:04;;;;;;;3.80;2.17;;;15.20;99.90;;;;;;5007790;28;20033;-76
2021/04/28 07:23:29;;;;;;;3.33;2.50;;;15.10;99.90;;;;;;4995917;28;20105;-77
2021/04/28 07:25:55;;;;;;;2.13;1.70;;;15.00;99.90;;;;;;4992289;28;20173;-75
2021/04/28 07:28:21;;;;;;;5.93;2.20;;;14.80;99.90;;;;;;5010987;28;20022;-77
2021/04/28 07:30:46;;;;;;;2.50;2.13;;;14.90;99.90;;;;;;5002784;28;20366;-74
2021/04/28 07:33:12;;;;;;;9.20;3.33;;;15.00;99.90;;;;;;4992113;28;20064;-77
2021/04/28 07:35:38;;;;;;;4.45;4.05;;;15.10;99.90;;;;;;5002947;28;20034;-76
2021/04/28 07:38:04;;;;;;;7.45;3.45;;;15.40;99.90;;;;;;5007408;28;20053;-77
2021/04/28 07:40:30;;;;;;;2.97;2.00;;;15.60;99.90;;;;;;5008358;28;20026;-75
2021/04/28 07:42:56;;;;;;;3.30;2.50;;;15.70;99.90;;;;;;5004581;28;20220;-76
2021/04/28 07:45:22;;;;;;;4.55;4.15;;;15.70;99.90;;;;;;5011554;28;20076;-78
2021/04/28 07:47:47;;;;;;;8.95;2.72;;;15.70;99.90;;;;;;5010458;28;20040;-76
2021/04/28 07:50:15;;;;;;;2.75;2.40;;;15.70;99.90;;;;;;5010601;28;20073;-79
2021/04/28 07:52:41;;;;;;;2.58;2.25;;;15.40;99.90;;;;;;5010367;28;20026;-76
2021/04/28 07:55:07;;;;;;;2.25;2.05;;;15.50;99.90;;;;;;5009767;28;20048;-76
2021/04/28 07:57:33;;;;;;;6.30;2.90;;;15.40;99.90;;;;;;4996826;28;20072;-78
2021/04/28 07:59:59;;;;;;;8.85;3.92;;;15.40;99.90;;;;;;4990309;28;20014;-78
2021/04/28 08:02:25;;;;;;;2.92;2.70;;;15.50;99.90;;;;;;5001181;28;20073;-77
2021/04/28 08:04:50;;;;;;;3.35;3.00;;;15.70;99.90;;;;;;5014688;28;20461;-77
2021/04/28 08:07:16;;;;;;;2.92;2.67;;;15.70;99.90;;;;;;5013904;28;20029;-76
2021/04/28 08:09:42;;;;;;;3.22;2.35;;;15.80;99.90;;;;;;5012184;28;20025;-77
2021/04/28 08:12:08;;;;;;;2.53;1.70;;;15.90;99.90;;;;;;5012793;28;20112;-78
2021/04/28 08:14:34;;;;;;;8.82;3.17;;;16.00;99.90;;;;;;5012663;28;20117;-76
2021/04/28 08:17:00;;;;;;;2.25;2.10;;;16.10;99.90;;;;;;5010255;28;20057;-77
2021/04/28 08:19:26;;;;;;;5.75;2.92;;;16.20;99.90;;;;;;5010031;28;20046;-78
2021/04/28 08:21:56;;;;;;;6.10;2.92;;;16.20;99.90;;;;;;5012949;28;20101;-77
2021/04/28 08:24:22;;;;;;;11.80;2.45;;;16.00;99.90;;;;;;5012885;28;20030;-76
2021/04/28 08:26:48;;;;;;;7.43;2.42;;;16.00;99.90;;;;;;5014470;28;20080;-75
2021/04/28 08:29:14;;;;;;;6.85;2.03;;;15.90;99.90;;;;;;5009676;28;20026;-76
2021/04/28 08:31:40;;;;;;;9.52;2.60;;;15.90;99.90;;;;;;5011508;28;20064;-76
2021/04/28 08:34:07;;;;;;;8.02;1.80;;;16.10;99.90;;;;;;5014093;28;20025;-77
2021/04/28 08:36:34;;;;;;;16.10;3.00;;;16.10;99.90;;;;;;5008580;28;20559;-76
2021/04/28 08:39:00;;;;;;;14.77;3.10;;;16.10;99.90;;;;;;5008675;28;20037;-76
2021/04/28 08:41:25;;;;;;;2.33;1.85;;;16.30;99.90;;;;;;4994001;28;20026;-77
2021/04/28 08:43:51;;;;;;;4.93;2.10;;;16.50;99.90;;;;;;5013283;28;20034;-76
2021/04/28 08:46:17;;;;;;;30.52;3.92;;;16.50;99.90;;;;;;4993582;28;20076;-76
2021/04/28 08:48:43;;;;;;;2.80;2.40;;;16.40;99.90;;;;;;4988525;28;20052;-76
2021/04/28 08:51:10;;;;;;;3.17;2.00;;;16.40;99.90;;;;;;5010022;28;20037;-76
2021/04/28 08:53:37;;;;;;;6.55;2.72;;;16.50;99.90;;;;;;5012079;28;20022;-77
2021/04/28 08:56:07;;;;;;;4.32;2.30;;;16.70;99.90;;;;;;5011427;28;20026;-77
2021/04/28 08:58:35;;;;;;;10.20;2.88;;;16.70;99.90;;;;;;5010582;28;20607;-76
2021/04/28 09:01:00;;;;;;;3.22;2.15;;;16.90;99.90;;;;;;5012484;28;20029;-77
2021/04/28 09:03:38;;;;;;;3.08;2.30;;;17.20;99.90;;;;;;4995999;28;20029;-78
2021/04/28 09:06:33;;;;;;;8.57;2.50;;;17.50;99.90;;;;;;5011345;28;20030;-76
2021/04/28 09:09:16;;;;;;;9.23;3.10;;;17.30;99.90;;;;;;5008216;28;20054;-77
2021/04/28 09:11:43;;;;;;;5.18;2.85;;;17.10;99.90;;;;;;5008722;28;20102;-77
2021/04/28 09:14:24;;;;;;;5.03;3.13;;;17.10;99.90;;;;;;5012742;28;20630;-76
2021/04/28 09:16:55;;;;;;;8.07;3.97;;;17.00;99.90;;;;;;5006289;28;20026;-77
2021/04/28 09:19:34;;;;;;;9.25;5.18;;;17.00;99.90;;;;;;5011255;28;20025;-77
2021/04/28 09:22:12;;;;;;;3.85;3.40;;;17.00;99.90;;;;;;4996200;28;20384;-77
2021/04/28 09:24:50;;;;;;;5.75;5.18;;;17.00;99.90;;;;;;5010275;28;20053;-76
2021/04/28 09:27:45;;;;;;;8.70;4.35;;;17.10;99.90;;;;;;5013222;28;20434;-76
2021/04/28 09:30:23;;;;;;;4.63;2.88;;;17.20;99.90;;;;;;4980118;28;20041;-77
2021/04/28 09:32:51;;;;;;;5.55;2.90;;;17.10;99.90;;;;;;4994820;28;20061;-76
2021/04/28 09:35:22;;;;;;;4.65;3.08;;;17.20;99.90;;;;;;4992076;28;20025;-76
2021/04/28 09:37:57;;;;;;;3.42;2.88;;;17.10;99.90;;;;;;4990465;28;20018;-77
2021/04/28 09:40:57;;;;;;;4.40;3.15;;;16.80;99.90;;;;;;5011275;28;20021;-77
2021/04/28 09:43:35;;;;;;;5.25;3.92;;;16.40;99.90;;;;;;5007710;28;20506;-77
2021/04/28 09:46:01;;;;;;;6.10;3.88;;;16.20;99.90;;;;;;5006601;28;20025;-77
2021/04/28 09:48:27;;;;;;;5.13;3.05;;;16.10;99.90;;;;;;5012260;28;20095;-77
2021/04/28 09:51:07;;;;;;;4.30;4.00;;;16.10;99.90;;;;;;5010097;28;20034;-77
2021/04/28 09:53:33;;;;;;;6.00;3.72;;;16.20;99.90;;;;;;5011740;28;20282;-77
2021/04/28 09:55:59;;;;;;;5.40;2.63;;;16.20;99.90;;;;;;5011256;28;20193;-77
2021/04/28 09:58:47;;;;;;;2.85;2.65;;;16.00;99.90;;;;;;5012471;28;20044;-78
2021/04/28 10:01:37;;;;;;;5.60;2.78;;;16.00;99.90;;;;;;4998024;28;22094;-77
2021/04/28 10:04:07;;;;;;;3.20;2.63;;;16.00;99.90;;;;;;5001728;28;20614;-76
2021/04/28 10:06:49;;;;;;;3.25;2.55;;;15.90;99.90;;;;;;5012084;28;20058;-77
2021/04/28 10:09:38;;;;;;;3.25;3.05;;;15.90;99.90;;;;;;5012101;28;20108;-78
2021/04/28 10:12:14;;;;;;;3.20;2.70;;;16.00;99.90;;;;;;5006398;28;20026;-77
2021/04/28 10:14:40;;;;;;;3.30;2.25;;;15.80;99.90;;;;;;4994733;28;20397;-77
2021/04/28 10:17:08;;;;;;;5.75;2.72;;;16.00;99.90;;;;;;5010405;28;20085;-77
2021/04/28 10:19:36;;;;;;;3.40;3.10;;;15.90;99.90;;;;;;5011128;28;20026;-77
2021/04/28 10:22:07;;;;;;;3.67;3.38;;;15.90;99.90;;;;;;5008464;28;20037;-76
2021/04/28 10:24:33;;;;;;;8.20;3.88;;;15.90;99.90;;;;;;5011052;28;20026;-77
2021/04/28 10:26:59;;;;;;;4.65;4.13;;;15.80;99.90;;;;;;5009954;28;20030;-78
2021/04/28 10:29:25;;;;;;;5.95;4.47;;;15.90;99.90;;;;;;5010937;28;20033;-77
2021/04/28 10:31:54;;;;;;;10.80;4.07;;;16.00;99.90;;;;;;5010079;28;20053;-76
2021/04/28 10:34:47;;;;;;;6.90;3.83;;;16.10;99.90;;;;;;5006849;28;20021;-76
2021/04/28 10:37:13;;;;;;;2.83;2.63;;;16.20;99.90;;;;;;4993648;28;20017;-77
2021/04/28 10:39:39;;;;;;;4.10;3.80;;;16.20;99.90;;;;;;5008485;28;20047;-76
2021/04/28 10:42:23;;;;;;;3.70;3.40;;;16.30;99.90;;;;;;5007615;28;20472;-78
2021/04/28 10:44:50;;;;;;;4.72;3.22;;;16.50;99.90;;;;;;5008122;28;20069;-75
2021/04/28 10:47:28;;;;;;;3.75;3.45;;;16.60;99.90;;;;;;5003378;28;20026;-76
2021/04/28 10:50:01;;;;;;;4.13;3.78;;;16.80;99.90;;;;;;5010323;28;20041;-77
2021/04/28 10:52:27;;;;;;;6.00;3.22;;;16.90;99.90;;;;;;5007360;28;20745;-79
2021/04/28 10:54:53;;;;;;;3.60;3.30;;;16.90;99.90;;;;;;5009307;28;20472;-77
2021/04/28 10:57:36;;;;;;;3.10;2.75;;;17.00;99.90;;;;;;5010906;28;20028;-76
2021/04/28 11:00:23;;;;;;;7.13;4.15;;;16.90;99.90;;;;;;5001802;28;20026;-78
2021/04/28 11:02:49;;;;;;;5.40;3.72;;;16.90;99.90;;;;;;5007333;28;20479;-78
2021/04/28 11:05:30;;;;;;;10.73;5.45;;;16.70;99.90;;;;;;5010838;28;20157;-78
2021/04/28 11:08:00;;;;;;;6.40;5.10;;;16.60;99.90;;;;;;5011449;28;20131;-77
2021/04/28 11:10:34;;;;;;;5.25;4.72;;;16.70;99.90;;;;;;5008984;28;20277;-76
2021/04/28 11:13:08;;;;;;;12.88;4.65;;;16.70;99.90;;;;;;4994445;28;20034;-77
2021/04/28 11:15:54;;;;;;;4.95;4.18;;;16.60;99.90;;;;;;5008518;28;20480;-76
2021/04/28 11:18:37;;;;;;;6.38;4.30;;;16.60;99.90;;;;;;5006388;28;20037;-78
2021/04/28 11:21:09;;;;;;;4.88;4.00;;;16.60;99.90;;;;;;5010572;28;20022;-77
2021/04/28 11:23:35;;;;;;;8.68;4.80;;;16.50;99.90;;;;;;4993152;28;20025;-78
2021/04/28 11:26:25;;;;;;;5.38;4.88;;;16.50;99.90;;;;;;5009704;28;20057;-76
2021/04/28 11:28:56;;;;;;;8.07;5.07;;;16.50;99.90;;;;;;5011913;28;20508;-77
2021/04/28 11:31:42;;;;;;;4.68;4.22;;;16.60;99.90;;;;;;4996195;28;20030;-77
2021/04/28 11:34:26;;;;;;;5.90;5.32;;;16.80;99.90;;;;;;5015437;28;20037;-77
2021/04/28 11:36:59;;;;;;;5.10;4.60;;;16.90;99.90;;;;;;5009569;28;20034;-76
2021/04/28 11:39:40;;;;;;;5.22;4.72;;;16.90;99.90;;;;;;4993936;28;20063;-77
2021/04/28 11:42:16;;;;;;;5.20;4.28;;;16.90;99.90;;;;;;4994227;28;20516;-77
2021/04/28 11:44:53;;;;;;;6.47;5.30;;;17.10;99.90;;;;;;4990618;28;20057;-78
2021/04/28 11:47:23;;;;;;;6.20;4.75;;;17.10;99.90;;;;;;5014494;28;20050;-76
2021/04/28 11:49:51;;;;;;;5.03;4.53;;;16.80;99.90;;;;;;5012073;28;20022;-79
2021/04/28 11:52:19;;;;;;;3.95;3.65;;;16.90;99.90;;;;;;5013644;28;20022;-78
2021/04/28 11:54:51;;;;;;;7.53;3.90;;;16.80;99.90;;;;;;5013381;28;20113;-77
2021/04/28 11:57:25;;;;;;;;;;;16.70;99.90;;;;;;4989974;28;20068;-77
2021/04/28 12:00:08;;;;;;;5.88;4.28;;;16.70;99.90;;;;;;4983408;28;19913;-77
2021/04/28 12:02:40;;;;;;;16.77;4.70;;;16.80;99.90;;;;;;5011427;28;20484;-79
2021/04/28 12:05:07;;;;;;;4.47;4.07;;;16.80;99.90;;;;;;5013726;28;20174;-76
2021/04/28 12:07:35;;;;;;;5.40;4.57;;;16.90;99.90;;;;;;5012304;28;20387;-78
2021/04/28 12:10:01;;;;;;;5.65;4.57;;;17.00;99.90;;;;;;5015026;28;20034;-77
2021/04/28 12:12:41;;;;;;;4.75;4.35;;;17.00;99.90;;;;;;5010495;28;20052;-77
2021/04/28 12:15:07;;;;;;;4.45;4.05;;;17.00;99.90;;;;;;4995640;28;20030;-79
2021/04/28 12:17:37;;;;;;;3.97;3.67;;;17.10;99.90;;;;;;4996954;28;20033;-79
2021/04/28 12:20:09;;;;;;;4.95;3.67;;;17.30;99.90;;;;;;5017579;28;20022;-78
2021/04/28 12:22:35;;;;;;;4.18;3.88;;;17.00;99.90;;;;;;5013769;28;20030;-77
2021/04/28 12:25:04;;;;;;;4.32;3.78;;;17.20;99.90;;;;;;5009465;28;20681;-79
2021/04/28 12:27:34;;;;;;;5.13;4.05;;;17.40;99.90;;;;;;5014184;28;20060;-77
2021/04/28 12:30:11;;;;;;;5.07;4.63;;;17.20;99.90;;;;;;5013326;28;20076;-78
2021/04/28 12:32:39;;;;;;;4.55;4.20;;;17.10;99.90;;;;;;5012265;28;20029;-78
2021/04/28 12:35:35;;;;;;;4.30;3.95;;;17.10;99.90;;;;;;5013171;28;20022;-77
2021/04/28 12:38:13;;;;;;;4.70;4.40;;;17.10;99.90;;;;;;4996102;28;20054;-77
2021/04/28 12:40:44;;;;;;;4.93;4.43;;;17.20;99.90;;;;;;5012867;28;20097;-77
2021/04/28 12:43:23;;;;;;;5.82;4.13;;;17.00;99.90;;;;;;4992596;28;20018;-77
2021/04/28 12:45:49;;;;;;;5.68;4.25;;;16.90;99.90;;;;;;5006286;28;20125;-78
2021/04/28 12:48:20;;;;;;;3.92;3.63;;;17.10;99.90;;;;;;5011270;28;20384;-78
2021/04/28 12:50:48;;;;;;;4.35;4.05;;;17.30;99.90;;;;;;5010447;28;20022;-77
2021/04/28 12:53:16;;;;;;;6.38;4.57;;;17.50;99.90;;;;;;5015216;28;20025;-78
2021/04/28 12:55:44;;;;;;;6.38;3.97;;;17.80;99.90;;;;;;5015660;28;20074;-77